D/T METAR WX W/DIR W/SPE G/SPE TEMP DEWP
23/05/19 14:20 EGFF 231320Z AUTO 26010KT 9999 NCD 16/09 Q1016 W (260°) 11.5mph 16°C 9°C
23/05/19 13:50 EGFF 231250Z AUTO 27010KT 9999 NCD 18/08 Q1016 W (270°) 11.5mph 18°C 8°C
23/05/19 13:20 EGFF 231220Z AUTO 25008KT 220V300 9999 NCD 17/10 Q1016 WSW (250°) 9.2mph 17°C 10°C
23/05/19 12:50 EGFF 231150Z AUTO 24007KT 9999 NCD 17/10 Q1016 WSW (240°) 8.1mph 17°C 10°C
23/05/19 12:20 EGFF 231120Z AUTO 22004KT 160V300 9999 NCD 17/06 Q1016 SW (220°) 4.6mph 17°C 6°C
23/05/19 11:50 EGFF 231050Z AUTO VRB03KT 9999 NCD 17/05 Q1017 N (0°) 3.5mph 17°C 5°C
23/05/19 11:20 EGFF 231020Z AUTO 12005KT 9999 NCD 17/07 Q1017 ESE (120°) 5.8mph 17°C 7°C
23/05/19 10:50 EGFF 230950Z AUTO 13004KT 100V160 9999 NCD 16/08 Q1017 SE (130°) 4.6mph 16°C 8°C
23/05/19 10:20 EGFF 230920Z AUTO VRB03KT 9999 FEW046 15/10 Q1017 N (0°) 3.5mph 15°C 10°C
23/05/19 09:50 EGFF 230850Z AUTO 14004KT 110V170 9999 SCT043 14/11 Q1017 SE (140°) 4.6mph 14°C 11°C
23/05/19 09:20 EGFF 230820Z AUTO 14004KT 110V170 9999 SCT042 13/11 Q1017 SE (140°) 4.6mph 13°C 11°C
23/05/19 08:50 EGFF 230750Z AUTO 12004KT 060V140 9999 FEW041 13/10 Q1017 ESE (120°) 4.6mph 13°C 10°C
23/05/19 08:20 EGFF 230720Z AUTO 13006KT 9999 FEW042 13/10 Q1017 SE (130°) 6.9mph 13°C 10°C
23/05/19 07:50 EGFF 230650Z AUTO VRB03KT 9999 NCD 12/09 Q1017 N (0°) 3.5mph 12°C 9°C
23/05/19 07:20 EGFF 230620Z AUTO VRB03KT 9999 NCD 10/08 Q1017 N (0°) 3.5mph 10°C 8°C
23/05/19 06:50 EGFF 230550Z AUTO 01003KT 9999 NCD 10/08 Q1017 N (10°) 3.5mph 10°C 8°C
23/05/19 06:20 EGFF 230520Z AUTO VRB02KT 9999 NCD 08/07 Q1017 N (0°) 2.3mph 8°C 7°C
23/05/19 05:50 EGFF 230450Z AUTO 01003KT 9999 NCD 07/06 Q1017 N (10°) 3.5mph 7°C 6°C
23/05/19 05:20 EGFF 230420Z AUTO 36003KT 9999 NCD 08/06 Q1017 N (360°) 3.5mph 8°C 6°C
23/05/19 04:50 EGFF 230350Z AUTO 35004KT 9999 NCD 07/06 Q1017 N (350°) 4.6mph 7°C 6°C
23/05/19 04:20 EGFF 230320Z AUTO 34002KT 9999 NCD 09/08 Q1017 NNW (340°) 2.3mph 9°C 8°C
23/05/19 03:50 EGFF 230250Z AUTO VRB01KT 9999 NCD 09/07 Q1017 N (0°) 1.2mph 9°C 7°C
23/05/19 03:20 EGFF 230220Z AUTO VRB01KT 9999 NCD 09/08 Q1017 N (0°) 1.2mph 9°C 8°C
23/05/19 02:50 EGFF 230150Z AUTO VRB02KT 9999 NCD 09/08 Q1018 N (0°) 2.3mph 9°C 8°C
23/05/19 01:50 EGFF 230050Z AUTO 30006KT 9999 NCD 10/08 Q1018 WNW (300°) 6.9mph 10°C 8°C
23/05/19 00:50 EGFF 222350Z AUTO 30006KT 9999 NCD 09/08 Q1018 WNW (300°) 6.9mph 9°C 8°C
23/05/19 00:20 EGFF 222320Z AUTO 30007KT 9999 NCD 10/08 Q1018 WNW (300°) 8.1mph 10°C 8°C
22/05/19 23:50 EGFF 222250Z AUTO 30006KT 9999 NCD 10/08 Q1018 WNW (300°) 6.9mph 10°C 8°C
22/05/19 22:50 EGFF 222150Z AUTO 30007KT 9999 NCD 09/07 Q1018 WNW (300°) 8.1mph 9°C 7°C
22/05/19 22:20 EGFF 222120Z AUTO 30008KT 9999 NCD 10/08 Q1019 WNW (300°) 9.2mph 10°C 8°C
22/05/19 21:20 EGFF 222020Z AUTO 29007KT 9999 NCD 11/07 Q1018 WNW (290°) 8.1mph 11°C 7°C
22/05/19 20:50 EGFF 221950Z AUTO 30009KT 9999 NCD 12/07 Q1018 WNW (300°) 10.4mph 12°C 7°C
22/05/19 20:20 EGFF 221920Z AUTO 30007KT 9999 NCD 12/07 Q1018 WNW (300°) 8.1mph 12°C 7°C
22/05/19 19:50 EGFF 221850Z AUTO 28006KT 9999 NCD 14/07 Q1018 W (280°) 6.9mph 14°C 7°C
22/05/19 19:20 EGFF 221820Z AUTO 27008KT 9999 NCD 16/07 Q1018 W (270°) 9.2mph 16°C 7°C
22/05/19 18:50 EGFF 221750Z AUTO 27008KT 9999 NCD 16/08 Q1018 W (270°) 9.2mph 16°C 8°C
22/05/19 18:20 EGFF 221720Z AUTO 26008KT 9999 NCD 16/10 Q1018 W (260°) 9.2mph 16°C 10°C
22/05/19 17:50 EGFF 221650Z AUTO 25007KT 9999 NCD 17/10 Q1019 WSW (250°) 8.1mph 17°C 10°C
22/05/19 17:20 EGFF 221620Z AUTO 27007KT 9999 NCD 18/09 Q1019 W (270°) 8.1mph 18°C 9°C
22/05/19 16:50 EGFF 221550Z AUTO 29008KT 240V320 9999 NCD 18/08 Q1019 WNW (290°) 9.2mph 18°C 8°C
22/05/19 16:20 EGFF 221520Z AUTO 28009KT 240V320 9999 NCD 18/07 Q1019 W (280°) 10.4mph 18°C 7°C
22/05/19 15:50 EGFF 221450Z AUTO 29009KT 240V320 9999 NCD 18/06 Q1019 WNW (290°) 10.4mph 18°C 6°C
22/05/19 15:20 EGFF 221420Z AUTO 28008KT 240V330 9999 NCD 18/07 Q1019 W (280°) 9.2mph 18°C 7°C
22/05/19 14:50 EGFF 221350Z AUTO 27008KT 170V320 9999 NCD 18/07 Q1020 W (270°) 9.2mph 18°C 7°C
22/05/19 14:20 EGFF 221320Z AUTO 22008KT 9999 NCD 18/07 Q1020 SW (220°) 9.2mph 18°C 7°C
22/05/19 13:50 EGFF 221250Z AUTO 23007KT 180V260 9999 NCD 18/07 Q1020 SW (230°) 8.1mph 18°C 7°C
22/05/19 13:20 EGFF 221220Z AUTO 24004KT 200V280 9999 NCD 17/05 Q1020 WSW (240°) 4.6mph 17°C 5°C
22/05/19 12:50 EGFF 221150Z AUTO 24005KT 200V300 9999 NCD 16/08 Q1020 WSW (240°) 5.8mph 16°C 8°C